sensor_id;sensor_type;location;lat;lon;timestamp;P1;durP1;ratioP1;P2;durP2;ratioP2
8365;SDS011;4220;42.502;24.188;2022-08-25T00:01:45;12.85;;;5.72;;
8365;SDS011;4220;42.502;24.188;2022-08-25T00:04:14;17.45;;;6.05;;
8365;SDS011;4220;42.502;24.188;2022-08-25T00:06:42;13.18;;;5.50;;
8365;SDS011;4220;42.502;24.188;2022-08-25T00:09:09;10.93;;;5.40;;
8365;SDS011;4220;42.502;24.188;2022-08-25T00:11:38;8.98;;;5.55;;
8365;SDS011;4220;42.502;24.188;2022-08-25T00:14:08;11.13;;;5.85;;
8365;SDS011;4220;42.502;24.188;2022-08-25T00:16:37;10.73;;;6.07;;
8365;SDS011;4220;42.502;24.188;2022-08-25T00:19:06;18.80;;;6.30;;
8365;SDS011;4220;42.502;24.188;2022-08-25T00:21:35;13.55;;;6.47;;
8365;SDS011;4220;42.502;24.188;2022-08-25T00:24:03;10.90;;;5.75;;
8365;SDS011;4220;42.502;24.188;2022-08-25T00:26:30;14.43;;;5.18;;
8365;SDS011;4220;42.502;24.188;2022-08-25T00:28:57;11.13;;;5.80;;
8365;SDS011;4220;42.502;24.188;2022-08-25T00:31:25;14.13;;;5.65;;
8365;SDS011;4220;42.502;24.188;2022-08-25T00:33:52;12.13;;;5.35;;
8365;SDS011;4220;42.502;24.188;2022-08-25T00:36:19;12.10;;;5.50;;
8365;SDS011;4220;42.502;24.188;2022-08-25T00:38:46;9.98;;;5.18;;
8365;SDS011;4220;42.502;24.188;2022-08-25T00:41:15;17.83;;;5.30;;
8365;SDS011;4220;42.502;24.188;2022-08-25T00:43:46;12.55;;;5.90;;
8365;SDS011;4220;42.502;24.188;2022-08-25T00:46:16;10.57;;;5.75;;
8365;SDS011;4220;42.502;24.188;2022-08-25T00:48:47;11.27;;;5.32;;
8365;SDS011;4220;42.502;24.188;2022-08-25T00:51:21;12.18;;;5.55;;
8365;SDS011;4220;42.502;24.188;2022-08-25T00:53:55;11.88;;;6.50;;
8365;SDS011;4220;42.502;24.188;2022-08-25T00:56:22;10.02;;;5.35;;
8365;SDS011;4220;42.502;24.188;2022-08-25T00:58:50;9.73;;;5.35;;
8365;SDS011;4220;42.502;24.188;2022-08-25T01:01:18;16.05;;;5.75;;
8365;SDS011;4220;42.502;24.188;2022-08-25T01:03:47;16.52;;;5.95;;
8365;SDS011;4220;42.502;24.188;2022-08-25T01:06:14;18.63;;;5.10;;
8365;SDS011;4220;42.502;24.188;2022-08-25T01:08:41;16.65;;;5.63;;
8365;SDS011;4220;42.502;24.188;2022-08-25T01:11:08;14.38;;;4.93;;
8365;SDS011;4220;42.502;24.188;2022-08-25T01:13:38;13.23;;;5.10;;
8365;SDS011;4220;42.502;24.188;2022-08-25T01:16:09;8.18;;;5.28;;
8365;SDS011;4220;42.502;24.188;2022-08-25T01:18:42;12.82;;;5.82;;
8365;SDS011;4220;42.502;24.188;2022-08-25T01:21:16;12.45;;;5.82;;
8365;SDS011;4220;42.502;24.188;2022-08-25T01:23:44;16.20;;;5.32;;
8365;SDS011;4220;42.502;24.188;2022-08-25T01:26:13;15.30;;;5.25;;
8365;SDS011;4220;42.502;24.188;2022-08-25T01:28:44;11.90;;;5.43;;
8365;SDS011;4220;42.502;24.188;2022-08-25T01:31:30;9.32;;;5.60;;
8365;SDS011;4220;42.502;24.188;2022-08-25T01:33:57;13.57;;;5.57;;
8365;SDS011;4220;42.502;24.188;2022-08-25T01:36:27;13.70;;;5.72;;
8365;SDS011;4220;42.502;24.188;2022-08-25T01:38:54;11.85;;;5.60;;
8365;SDS011;4220;42.502;24.188;2022-08-25T01:41:25;10.30;;;5.70;;
8365;SDS011;4220;42.502;24.188;2022-08-25T01:44:00;9.65;;;5.65;;
8365;SDS011;4220;42.502;24.188;2022-08-25T01:46:30;12.68;;;4.93;;
8365;SDS011;4220;42.502;24.188;2022-08-25T01:48:57;10.38;;;5.65;;
8365;SDS011;4220;42.502;24.188;2022-08-25T01:51:27;15.95;;;5.60;;
8365;SDS011;4220;42.502;24.188;2022-08-25T01:53:55;9.23;;;4.75;;
8365;SDS011;4220;42.502;24.188;2022-08-25T01:56:22;11.30;;;5.28;;
8365;SDS011;4220;42.502;24.188;2022-08-25T01:58:49;10.30;;;5.57;;
8365;SDS011;4220;42.502;24.188;2022-08-25T02:01:16;15.82;;;5.75;;
8365;SDS011;4220;42.502;24.188;2022-08-25T02:03:46;11.18;;;5.28;;
8365;SDS011;4220;42.502;24.188;2022-08-25T02:06:15;10.23;;;5.65;;
8365;SDS011;4220;42.502;24.188;2022-08-25T02:08:50;13.30;;;5.50;;
8365;SDS011;4220;42.502;24.188;2022-08-25T02:11:17;9.50;;;5.75;;
8365;SDS011;4220;42.502;24.188;2022-08-25T02:13:45;12.20;;;6.22;;
8365;SDS011;4220;42.502;24.188;2022-08-25T02:16:14;16.30;;;5.72;;
8365;SDS011;4220;42.502;24.188;2022-08-25T02:18:44;9.43;;;5.55;;
8365;SDS011;4220;42.502;24.188;2022-08-25T02:21:11;13.85;;;5.32;;
8365;SDS011;4220;42.502;24.188;2022-08-25T02:23:38;12.63;;;6.15;;
8365;SDS011;4220;42.502;24.188;2022-08-25T02:26:07;12.65;;;6.10;;
8365;SDS011;4220;42.502;24.188;2022-08-25T02:28:34;14.55;;;6.40;;
8365;SDS011;4220;42.502;24.188;2022-08-25T02:31:02;11.88;;;6.43;;
8365;SDS011;4220;42.502;24.188;2022-08-25T02:33:29;15.57;;;6.63;;
8365;SDS011;4220;42.502;24.188;2022-08-25T02:35:57;15.27;;;6.70;;
8365;SDS011;4220;42.502;24.188;2022-08-25T02:38:24;13.63;;;5.93;;
8365;SDS011;4220;42.502;24.188;2022-08-25T02:40:53;11.55;;;6.50;;
8365;SDS011;4220;42.502;24.188;2022-08-25T02:43:22;12.50;;;6.70;;
8365;SDS011;4220;42.502;24.188;2022-08-25T02:45:50;15.43;;;5.82;;
8365;SDS011;4220;42.502;24.188;2022-08-25T02:48:17;13.80;;;6.68;;
8365;SDS011;4220;42.502;24.188;2022-08-25T02:50:45;16.58;;;6.47;;
8365;SDS011;4220;42.502;24.188;2022-08-25T02:53:12;18.60;;;6.10;;
8365;SDS011;4220;42.502;24.188;2022-08-25T02:55:39;13.80;;;6.80;;
8365;SDS011;4220;42.502;24.188;2022-08-25T02:58:06;9.73;;;5.78;;
8365;SDS011;4220;42.502;24.188;2022-08-25T03:00:36;16.55;;;5.82;;
8365;SDS011;4220;42.502;24.188;2022-08-25T03:03:03;11.27;;;5.97;;
8365;SDS011;4220;42.502;24.188;2022-08-25T03:05:31;13.27;;;6.45;;
8365;SDS011;4220;42.502;24.188;2022-08-25T03:07:58;15.55;;;6.82;;
8365;SDS011;4220;42.502;24.188;2022-08-25T03:10:25;10.45;;;6.00;;
8365;SDS011;4220;42.502;24.188;2022-08-25T03:12:52;11.18;;;6.88;;
8365;SDS011;4220;42.502;24.188;2022-08-25T03:15:19;13.10;;;6.43;;
8365;SDS011;4220;42.502;24.188;2022-08-25T03:17:48;15.30;;;6.30;;
8365;SDS011;4220;42.502;24.188;2022-08-25T03:20:15;15.10;;;6.32;;
8365;SDS011;4220;42.502;24.188;2022-08-25T03:22:42;15.65;;;6.60;;
8365;SDS011;4220;42.502;24.188;2022-08-25T03:25:09;16.85;;;6.18;;
8365;SDS011;4220;42.502;24.188;2022-08-25T03:27:53;9.68;;;6.20;;
8365;SDS011;4220;42.502;24.188;2022-08-25T03:30:20;17.17;;;5.93;;
8365;SDS011;4220;42.502;24.188;2022-08-25T03:32:48;13.55;;;6.22;;
8365;SDS011;4220;42.502;24.188;2022-08-25T03:35:15;15.45;;;5.65;;
8365;SDS011;4220;42.502;24.188;2022-08-25T03:37:43;11.02;;;6.10;;
8365;SDS011;4220;42.502;24.188;2022-08-25T03:40:11;14.15;;;6.10;;
8365;SDS011;4220;42.502;24.188;2022-08-25T03:42:39;13.23;;;6.38;;
8365;SDS011;4220;42.502;24.188;2022-08-25T03:45:07;14.32;;;6.53;;
8365;SDS011;4220;42.502;24.188;2022-08-25T03:47:35;20.42;;;6.30;;
8365;SDS011;4220;42.502;24.188;2022-08-25T03:50:05;11.63;;;6.05;;
8365;SDS011;4220;42.502;24.188;2022-08-25T03:52:34;11.88;;;6.70;;
8365;SDS011;4220;42.502;24.188;2022-08-25T03:55:02;14.52;;;6.78;;
8365;SDS011;4220;42.502;24.188;2022-08-25T03:57:31;19.20;;;6.43;;
8365;SDS011;4220;42.502;24.188;2022-08-25T03:59:57;12.45;;;6.68;;
8365;SDS011;4220;42.502;24.188;2022-08-25T04:02:25;27.27;;;7.75;;
8365;SDS011;4220;42.502;24.188;2022-08-25T04:04:51;12.23;;;6.47;;
8365;SDS011;4220;42.502;24.188;2022-08-25T04:07:20;17.23;;;6.20;;
8365;SDS011;4220;42.502;24.188;2022-08-25T04:09:47;11.38;;;6.32;;
8365;SDS011;4220;42.502;24.188;2022-08-25T04:12:13;10.57;;;6.32;;
8365;SDS011;4220;42.502;24.188;2022-08-25T04:14:40;10.55;;;6.90;;
8365;SDS011;4220;42.502;24.188;2022-08-25T04:17:07;15.23;;;8.05;;
8365;SDS011;4220;42.502;24.188;2022-08-25T04:19:34;20.90;;;9.10;;
8365;SDS011;4220;42.502;24.188;2022-08-25T04:22:01;14.27;;;8.95;;
8365;SDS011;4220;42.502;24.188;2022-08-25T04:24:29;21.80;;;11.63;;
8365;SDS011;4220;42.502;24.188;2022-08-25T04:26:56;26.63;;;11.88;;
8365;SDS011;4220;42.502;24.188;2022-08-25T04:29:23;23.95;;;11.20;;
8365;SDS011;4220;42.502;24.188;2022-08-25T04:31:51;17.35;;;10.80;;
8365;SDS011;4220;42.502;24.188;2022-08-25T04:34:20;19.95;;;10.15;;
8365;SDS011;4220;42.502;24.188;2022-08-25T04:36:49;15.93;;;10.07;;
8365;SDS011;4220;42.502;24.188;2022-08-25T04:39:16;16.45;;;10.50;;
8365;SDS011;4220;42.502;24.188;2022-08-25T04:41:46;15.80;;;9.23;;
8365;SDS011;4220;42.502;24.188;2022-08-25T04:44:13;19.90;;;10.27;;
8365;SDS011;4220;42.502;24.188;2022-08-25T04:46:40;36.03;;;24.02;;
8365;SDS011;4220;42.502;24.188;2022-08-25T04:49:07;80.97;;;69.32;;
8365;SDS011;4220;42.502;24.188;2022-08-25T04:51:36;136.85;;;121.85;;
8365;SDS011;4220;42.502;24.188;2022-08-25T04:54:05;25.52;;;17.15;;
8365;SDS011;4220;42.502;24.188;2022-08-25T04:56:34;15.70;;;9.88;;
8365;SDS011;4220;42.502;24.188;2022-08-25T04:59:04;42.90;;;29.67;;
8365;SDS011;4220;42.502;24.188;2022-08-25T05:01:33;81.57;;;59.72;;
8365;SDS011;4220;42.502;24.188;2022-08-25T05:04:00;32.67;;;25.83;;
8365;SDS011;4220;42.502;24.188;2022-08-25T05:06:29;37.40;;;30.50;;
8365;SDS011;4220;42.502;24.188;2022-08-25T05:08:56;21.55;;;12.02;;
8365;SDS011;4220;42.502;24.188;2022-08-25T05:11:25;15.75;;;10.07;;
8365;SDS011;4220;42.502;24.188;2022-08-25T05:13:53;18.52;;;10.32;;
8365;SDS011;4220;42.502;24.188;2022-08-25T05:16:24;19.40;;;11.07;;
8365;SDS011;4220;42.502;24.188;2022-08-25T05:18:51;24.02;;;10.75;;
8365;SDS011;4220;42.502;24.188;2022-08-25T05:21:23;17.60;;;11.25;;
8365;SDS011;4220;42.502;24.188;2022-08-25T05:23:53;17.90;;;12.93;;
8365;SDS011;4220;42.502;24.188;2022-08-25T05:26:22;29.33;;;16.50;;
8365;SDS011;4220;42.502;24.188;2022-08-25T05:28:50;27.75;;;17.67;;
8365;SDS011;4220;42.502;24.188;2022-08-25T05:31:18;30.52;;;15.73;;
8365;SDS011;4220;42.502;24.188;2022-08-25T05:33:48;90.20;;;60.67;;
8365;SDS011;4220;42.502;24.188;2022-08-25T05:36:16;126.20;;;100.72;;
8365;SDS011;4220;42.502;24.188;2022-08-25T05:38:47;77.20;;;59.38;;
8365;SDS011;4220;42.502;24.188;2022-08-25T05:41:16;23.38;;;13.85;;
8365;SDS011;4220;42.502;24.188;2022-08-25T05:43:44;25.20;;;16.15;;
8365;SDS011;4220;42.502;24.188;2022-08-25T05:46:13;62.28;;;43.72;;
8365;SDS011;4220;42.502;24.188;2022-08-25T05:48:41;24.70;;;17.55;;
8365;SDS011;4220;42.502;24.188;2022-08-25T05:51:10;24.35;;;13.63;;
8365;SDS011;4220;42.502;24.188;2022-08-25T05:53:38;19.40;;;12.65;;
8365;SDS011;4220;42.502;24.188;2022-08-25T05:56:06;23.80;;;14.07;;
8365;SDS011;4220;42.502;24.188;2022-08-25T05:58:34;23.75;;;14.38;;
8365;SDS011;4220;42.502;24.188;2022-08-25T06:01:04;26.35;;;13.70;;
8365;SDS011;4220;42.502;24.188;2022-08-25T06:03:45;20.45;;;12.80;;
8365;SDS011;4220;42.502;24.188;2022-08-25T06:06:13;37.80;;;25.25;;
8365;SDS011;4220;42.502;24.188;2022-08-25T06:08:41;45.78;;;33.67;;
8365;SDS011;4220;42.502;24.188;2022-08-25T06:11:08;28.55;;;22.02;;
8365;SDS011;4220;42.502;24.188;2022-08-25T06:13:35;22.77;;;13.07;;
8365;SDS011;4220;42.502;24.188;2022-08-25T06:16:03;29.10;;;22.50;;
8365;SDS011;4220;42.502;24.188;2022-08-25T06:18:30;31.58;;;24.70;;
8365;SDS011;4220;42.502;24.188;2022-08-25T06:20:57;26.45;;;14.55;;
8365;SDS011;4220;42.502;24.188;2022-08-25T06:23:25;21.52;;;12.32;;
8365;SDS011;4220;42.502;24.188;2022-08-25T06:25:52;23.13;;;12.48;;
8365;SDS011;4220;42.502;24.188;2022-08-25T06:28:20;21.55;;;11.70;;
8365;SDS011;4220;42.502;24.188;2022-08-25T06:30:47;24.48;;;12.32;;
8365;SDS011;4220;42.502;24.188;2022-08-25T06:33:14;29.98;;;11.55;;
8365;SDS011;4220;42.502;24.188;2022-08-25T06:35:41;23.10;;;11.07;;
8365;SDS011;4220;42.502;24.188;2022-08-25T06:38:09;28.02;;;12.10;;
8365;SDS011;4220;42.502;24.188;2022-08-25T06:40:38;24.98;;;12.45;;
8365;SDS011;4220;42.502;24.188;2022-08-25T06:43:05;26.67;;;12.55;;
8365;SDS011;4220;42.502;24.188;2022-08-25T06:45:33;28.75;;;12.05;;
8365;SDS011;4220;42.502;24.188;2022-08-25T06:48:00;28.63;;;11.32;;
8365;SDS011;4220;42.502;24.188;2022-08-25T06:50:27;24.73;;;11.35;;
8365;SDS011;4220;42.502;24.188;2022-08-25T06:52:54;23.27;;;10.02;;
8365;SDS011;4220;42.502;24.188;2022-08-25T06:55:21;19.20;;;9.75;;
8365;SDS011;4220;42.502;24.188;2022-08-25T06:57:49;45.47;;;26.38;;
8365;SDS011;4220;42.502;24.188;2022-08-25T07:00:18;26.98;;;11.18;;
8365;SDS011;4220;42.502;24.188;2022-08-25T07:02:45;18.98;;;9.98;;
8365;SDS011;4220;42.502;24.188;2022-08-25T07:05:12;24.77;;;10.48;;
8365;SDS011;4220;42.502;24.188;2022-08-25T07:07:39;16.48;;;9.35;;
8365;SDS011;4220;42.502;24.188;2022-08-25T07:10:06;24.05;;;9.63;;
8365;SDS011;4220;42.502;24.188;2022-08-25T07:12:34;26.52;;;11.75;;
8365;SDS011;4220;42.502;24.188;2022-08-25T07:15:03;19.65;;;9.73;;
8365;SDS011;4220;42.502;24.188;2022-08-25T07:17:30;23.25;;;11.68;;
8365;SDS011;4220;42.502;24.188;2022-08-25T07:19:57;21.48;;;11.40;;
8365;SDS011;4220;42.502;24.188;2022-08-25T07:22:24;26.35;;;10.77;;
8365;SDS011;4220;42.502;24.188;2022-08-25T07:24:51;24.40;;;10.32;;
8365;SDS011;4220;42.502;24.188;2022-08-25T07:27:18;22.17;;;8.38;;
8365;SDS011;4220;42.502;24.188;2022-08-25T07:29:45;22.75;;;9.18;;
8365;SDS011;4220;42.502;24.188;2022-08-25T07:32:15;19.08;;;8.43;;
8365;SDS011;4220;42.502;24.188;2022-08-25T07:34:42;22.23;;;8.60;;
8365;SDS011;4220;42.502;24.188;2022-08-25T07:37:26;24.17;;;7.63;;
8365;SDS011;4220;42.502;24.188;2022-08-25T07:39:53;35.22;;;18.13;;
8365;SDS011;4220;42.502;24.188;2022-08-25T07:42:20;18.50;;;9.10;;
8365;SDS011;4220;42.502;24.188;2022-08-25T07:44:47;29.02;;;8.05;;
8365;SDS011;4220;42.502;24.188;2022-08-25T07:47:15;21.20;;;7.50;;
8365;SDS011;4220;42.502;24.188;2022-08-25T07:49:42;21.33;;;7.55;;
8365;SDS011;4220;42.502;24.188;2022-08-25T07:52:09;30.90;;;7.55;;
8365;SDS011;4220;42.502;24.188;2022-08-25T07:54:36;19.85;;;7.22;;
8365;SDS011;4220;42.502;24.188;2022-08-25T07:57:03;26.85;;;7.20;;
8365;SDS011;4220;42.502;24.188;2022-08-25T07:59:31;23.20;;;7.30;;
8365;SDS011;4220;42.502;24.188;2022-08-25T08:01:58;20.60;;;7.45;;
8365;SDS011;4220;42.502;24.188;2022-08-25T08:04:26;22.52;;;6.38;;
8365;SDS011;4220;42.502;24.188;2022-08-25T08:06:53;26.73;;;7.45;;
8365;SDS011;4220;42.502;24.188;2022-08-25T08:09:20;24.55;;;7.15;;
8365;SDS011;4220;42.502;24.188;2022-08-25T08:11:47;23.35;;;7.07;;
8365;SDS011;4220;42.502;24.188;2022-08-25T08:14:14;24.88;;;7.00;;
8365;SDS011;4220;42.502;24.188;2022-08-25T08:16:41;24.13;;;7.40;;
8365;SDS011;4220;42.502;24.188;2022-08-25T08:19:08;19.92;;;7.22;;
8365;SDS011;4220;42.502;24.188;2022-08-25T08:21:36;23.27;;;6.55;;
8365;SDS011;4220;42.502;24.188;2022-08-25T08:24:03;21.75;;;5.97;;
8365;SDS011;4220;42.502;24.188;2022-08-25T08:26:30;26.42;;;7.20;;
8365;SDS011;4220;42.502;24.188;2022-08-25T08:28:58;19.50;;;5.95;;
8365;SDS011;4220;42.502;24.188;2022-08-25T08:31:25;17.02;;;5.63;;
8365;SDS011;4220;42.502;24.188;2022-08-25T08:33:53;23.55;;;6.75;;
8365;SDS011;4220;42.502;24.188;2022-08-25T08:36:22;20.20;;;6.47;;
8365;SDS011;4220;42.502;24.188;2022-08-25T08:38:52;16.15;;;5.57;;
8365;SDS011;4220;42.502;24.188;2022-08-25T08:44:33;23.73;;;6.00;;
8365;SDS011;4220;42.502;24.188;2022-08-25T08:47:09;20.23;;;6.15;;
8365;SDS011;4220;42.502;24.188;2022-08-25T08:49:43;18.98;;;5.38;;
8365;SDS011;4220;42.502;24.188;2022-08-25T08:52:18;20.33;;;5.43;;
8365;SDS011;4220;42.502;24.188;2022-08-25T08:54:58;16.48;;;5.13;;
8365;SDS011;4220;42.502;24.188;2022-08-25T08:57:28;30.45;;;5.65;;
8365;SDS011;4220;42.502;24.188;2022-08-25T09:00:01;29.38;;;6.20;;
8365;SDS011;4220;42.502;24.188;2022-08-25T09:02:32;26.50;;;6.13;;
8365;SDS011;4220;42.502;24.188;2022-08-25T09:05:05;21.92;;;5.80;;
8365;SDS011;4220;42.502;24.188;2022-08-25T09:07:39;21.17;;;5.40;;
8365;SDS011;4220;42.502;24.188;2022-08-25T09:10:13;25.70;;;5.47;;
8365;SDS011;4220;42.502;24.188;2022-08-25T09:12:42;18.27;;;5.93;;
8365;SDS011;4220;42.502;24.188;2022-08-25T09:15:12;22.13;;;5.30;;
8365;SDS011;4220;42.502;24.188;2022-08-25T09:20:34;23.70;;;5.18;;
8365;SDS011;4220;42.502;24.188;2022-08-25T09:23:11;28.15;;;5.40;;
8365;SDS011;4220;42.502;24.188;2022-08-25T09:25:53;20.92;;;6.15;;
8365;SDS011;4220;42.502;24.188;2022-08-25T09:28:29;17.77;;;5.32;;
8365;SDS011;4220;42.502;24.188;2022-08-25T09:30:58;32.47;;;6.18;;
8365;SDS011;4220;42.502;24.188;2022-08-25T09:33:29;25.42;;;5.00;;
8365;SDS011;4220;42.502;24.188;2022-08-25T09:35:59;23.83;;;6.47;;
8365;SDS011;4220;42.502;24.188;2022-08-25T09:38:26;26.08;;;5.10;;
8365;SDS011;4220;42.502;24.188;2022-08-25T09:40:57;21.77;;;5.35;;
8365;SDS011;4220;42.502;24.188;2022-08-25T09:43:29;19.95;;;4.93;;
8365;SDS011;4220;42.502;24.188;2022-08-25T09:45:59;17.95;;;4.65;;
8365;SDS011;4220;42.502;24.188;2022-08-25T09:48:27;22.27;;;5.28;;
8365;SDS011;4220;42.502;24.188;2022-08-25T09:51:08;24.67;;;5.15;;
8365;SDS011;4220;42.502;24.188;2022-08-25T09:53:41;21.40;;;4.82;;
8365;SDS011;4220;42.502;24.188;2022-08-25T09:56:14;22.75;;;5.43;;
8365;SDS011;4220;42.502;24.188;2022-08-25T09:58:46;17.20;;;4.18;;
8365;SDS011;4220;42.502;24.188;2022-08-25T10:01:14;21.77;;;4.93;;
8365;SDS011;4220;42.502;24.188;2022-08-25T10:03:53;17.73;;;4.65;;
8365;SDS011;4220;42.502;24.188;2022-08-25T10:06:22;19.52;;;4.07;;
8365;SDS011;4220;42.502;24.188;2022-08-25T10:08:52;30.10;;;4.78;;
8365;SDS011;4220;42.502;24.188;2022-08-25T10:11:38;20.85;;;4.75;;
8365;SDS011;4220;42.502;24.188;2022-08-25T10:14:17;19.55;;;4.70;;
8365;SDS011;4220;42.502;24.188;2022-08-25T10:16:47;18.15;;;3.92;;
8365;SDS011;4220;42.502;24.188;2022-08-25T10:19:21;22.08;;;4.40;;
8365;SDS011;4220;42.502;24.188;2022-08-25T10:22:01;20.80;;;4.10;;
8365;SDS011;4220;42.502;24.188;2022-08-25T10:24:33;20.08;;;4.40;;
8365;SDS011;4220;42.502;24.188;2022-08-25T10:27:04;18.17;;;4.25;;
8365;SDS011;4220;42.502;24.188;2022-08-25T10:29:52;17.95;;;4.32;;
8365;SDS011;4220;42.502;24.188;2022-08-25T10:32:31;16.73;;;5.15;;
8365;SDS011;4220;42.502;24.188;2022-08-25T10:35:12;13.23;;;3.63;;
8365;SDS011;4220;42.502;24.188;2022-08-25T10:37:44;17.35;;;3.63;;
8365;SDS011;4220;42.502;24.188;2022-08-25T10:40:20;19.20;;;3.95;;
8365;SDS011;4220;42.502;24.188;2022-08-25T10:42:56;21.48;;;4.07;;
8365;SDS011;4220;42.502;24.188;2022-08-25T10:45:32;17.85;;;4.35;;
8365;SDS011;4220;42.502;24.188;2022-08-25T10:48:22;12.80;;;3.60;;
8365;SDS011;4220;42.502;24.188;2022-08-25T10:50:58;15.23;;;4.05;;
8365;SDS011;4220;42.502;24.188;2022-08-25T10:53:28;16.67;;;4.20;;
8365;SDS011;4220;42.502;24.188;2022-08-25T10:56:07;18.23;;;4.00;;
8365;SDS011;4220;42.502;24.188;2022-08-25T10:58:54;20.05;;;4.18;;
8365;SDS011;4220;42.502;24.188;2022-08-25T11:01:39;17.90;;;4.28;;
8365;SDS011;4220;42.502;24.188;2022-08-25T11:04:17;17.77;;;4.32;;
8365;SDS011;4220;42.502;24.188;2022-08-25T11:06:51;20.05;;;5.07;;
8365;SDS011;4220;42.502;24.188;2022-08-25T11:09:24;13.50;;;4.18;;
8365;SDS011;4220;42.502;24.188;2022-08-25T11:11:56;14.93;;;4.03;;
8365;SDS011;4220;42.502;24.188;2022-08-25T11:14:30;10.85;;;3.95;;
8365;SDS011;4220;42.502;24.188;2022-08-25T11:17:01;13.18;;;4.32;;
8365;SDS011;4220;42.502;24.188;2022-08-25T11:19:32;19.02;;;3.90;;
8365;SDS011;4220;42.502;24.188;2022-08-25T11:22:03;16.40;;;4.03;;
8365;SDS011;4220;42.502;24.188;2022-08-25T11:24:40;17.15;;;5.07;;
8365;SDS011;4220;42.502;24.188;2022-08-25T11:27:14;20.75;;;4.38;;
8365;SDS011;4220;42.502;24.188;2022-08-25T11:29:58;12.85;;;3.88;;
8365;SDS011;4220;42.502;24.188;2022-08-25T11:32:31;22.20;;;4.22;;
8365;SDS011;4220;42.502;24.188;2022-08-25T11:35:00;19.70;;;4.80;;
8365;SDS011;4220;42.502;24.188;2022-08-25T11:37:27;19.98;;;4.15;;
8365;SDS011;4220;42.502;24.188;2022-08-25T11:43:05;12.95;;;3.88;;
8365;SDS011;4220;42.502;24.188;2022-08-25T11:45:46;18.42;;;4.13;;
8365;SDS011;4220;42.502;24.188;2022-08-25T11:48:26;17.30;;;4.47;;
8365;SDS011;4220;42.502;24.188;2022-08-25T11:51:01;13.18;;;4.05;;
8365;SDS011;4220;42.502;24.188;2022-08-25T11:53:31;21.95;;;4.38;;
8365;SDS011;4220;42.502;24.188;2022-08-25T11:56:01;14.18;;;4.68;;
8365;SDS011;4220;42.502;24.188;2022-08-25T11:58:32;17.65;;;3.90;;
8365;SDS011;4220;42.502;24.188;2022-08-25T12:01:05;16.55;;;4.30;;
8365;SDS011;4220;42.502;24.188;2022-08-25T12:03:46;18.80;;;4.13;;
8365;SDS011;4220;42.502;24.188;2022-08-25T12:06:18;13.77;;;3.97;;
8365;SDS011;4220;42.502;24.188;2022-08-25T12:08:51;16.40;;;4.22;;
8365;SDS011;4220;42.502;24.188;2022-08-25T12:11:47;17.75;;;4.95;;
8365;SDS011;4220;42.502;24.188;2022-08-25T12:14:34;15.93;;;4.75;;
8365;SDS011;4220;42.502;24.188;2022-08-25T12:17:18;16.27;;;3.92;;
8365;SDS011;4220;42.502;24.188;2022-08-25T12:19:52;20.98;;;4.85;;
8365;SDS011;4220;42.502;24.188;2022-08-25T12:22:43;15.48;;;4.28;;
8365;SDS011;4220;42.502;24.188;2022-08-25T12:25:29;21.17;;;4.85;;
8365;SDS011;4220;42.502;24.188;2022-08-25T12:31:07;17.42;;;5.15;;
8365;SDS011;4220;42.502;24.188;2022-08-25T12:33:47;17.50;;;5.05;;
8365;SDS011;4220;42.502;24.188;2022-08-25T12:36:25;12.85;;;4.68;;
8365;SDS011;4220;42.502;24.188;2022-08-25T12:38:55;17.17;;;4.60;;
8365;SDS011;4220;42.502;24.188;2022-08-25T12:41:49;17.45;;;4.72;;
8365;SDS011;4220;42.502;24.188;2022-08-25T12:44:32;14.15;;;4.25;;
8365;SDS011;4220;42.502;24.188;2022-08-25T12:47:10;13.50;;;4.57;;
8365;SDS011;4220;42.502;24.188;2022-08-25T12:53:13;16.30;;;4.00;;
8365;SDS011;4220;42.502;24.188;2022-08-25T12:55:47;17.85;;;4.45;;
8365;SDS011;4220;42.502;24.188;2022-08-25T12:58:17;19.02;;;4.40;;
8365;SDS011;4220;42.502;24.188;2022-08-25T13:00:49;12.00;;;3.97;;
8365;SDS011;4220;42.502;24.188;2022-08-25T13:03:39;15.77;;;4.75;;
8365;SDS011;4220;42.502;24.188;2022-08-25T13:06:26;43.05;;;30.15;;
8365;SDS011;4220;42.502;24.188;2022-08-25T13:09:26;15.73;;;7.13;;
8365;SDS011;4220;42.502;24.188;2022-08-25T13:12:17;15.13;;;4.15;;
8365;SDS011;4220;42.502;24.188;2022-08-25T13:14:51;14.48;;;4.00;;
8365;SDS011;4220;42.502;24.188;2022-08-25T13:17:25;16.33;;;4.10;;
8365;SDS011;4220;42.502;24.188;2022-08-25T13:22:39;13.80;;;4.18;;
8365;SDS011;4220;42.502;24.188;2022-08-25T13:25:14;16.85;;;4.60;;
8365;SDS011;4220;42.502;24.188;2022-08-25T13:27:46;12.95;;;4.38;;
8365;SDS011;4220;42.502;24.188;2022-08-25T13:30:20;7.93;;;3.63;;
8365;SDS011;4220;42.502;24.188;2022-08-25T13:32:49;13.63;;;4.55;;
8365;SDS011;4220;42.502;24.188;2022-08-25T13:35:17;11.38;;;4.18;;
8365;SDS011;4220;42.502;24.188;2022-08-25T13:37:46;17.58;;;3.90;;
8365;SDS011;4220;42.502;24.188;2022-08-25T13:40:15;27.02;;;21.02;;
8365;SDS011;4220;42.502;24.188;2022-08-25T13:42:49;21.27;;;14.02;;
8365;SDS011;4220;42.502;24.188;2022-08-25T13:45:18;16.20;;;6.22;;
8365;SDS011;4220;42.502;24.188;2022-08-25T13:47:47;14.80;;;4.85;;
8365;SDS011;4220;42.502;24.188;2022-08-25T13:50:18;13.50;;;4.40;;
8365;SDS011;4220;42.502;24.188;2022-08-25T13:52:47;15.02;;;4.35;;
8365;SDS011;4220;42.502;24.188;2022-08-25T13:55:21;16.83;;;4.72;;
8365;SDS011;4220;42.502;24.188;2022-08-25T13:57:50;16.98;;;4.45;;
8365;SDS011;4220;42.502;24.188;2022-08-25T14:00:25;9.02;;;4.22;;
8365;SDS011;4220;42.502;24.188;2022-08-25T14:02:55;17.35;;;4.70;;
8365;SDS011;4220;42.502;24.188;2022-08-25T14:05:36;15.38;;;3.92;;
8365;SDS011;4220;42.502;24.188;2022-08-25T14:08:06;8.55;;;4.43;;
8365;SDS011;4220;42.502;24.188;2022-08-25T14:11:02;10.73;;;4.57;;
8365;SDS011;4220;42.502;24.188;2022-08-25T14:13:34;15.60;;;4.38;;
8365;SDS011;4220;42.502;24.188;2022-08-25T14:16:05;12.55;;;4.30;;
8365;SDS011;4220;42.502;24.188;2022-08-25T14:18:35;9.43;;;3.88;;
8365;SDS011;4220;42.502;24.188;2022-08-25T14:21:06;16.23;;;4.35;;
8365;SDS011;4220;42.502;24.188;2022-08-25T14:23:36;25.75;;;22.63;;
8365;SDS011;4220;42.502;24.188;2022-08-25T14:26:05;43.58;;;30.58;;
8365;SDS011;4220;42.502;24.188;2022-08-25T14:28:32;15.90;;;4.93;;
8365;SDS011;4220;42.502;24.188;2022-08-25T14:31:00;11.63;;;4.28;;
8365;SDS011;4220;42.502;24.188;2022-08-25T14:33:33;11.43;;;4.43;;
8365;SDS011;4220;42.502;24.188;2022-08-25T14:36:03;11.65;;;4.00;;
8365;SDS011;4220;42.502;24.188;2022-08-25T14:38:31;12.13;;;4.70;;
8365;SDS011;4220;42.502;24.188;2022-08-25T14:40:59;11.77;;;4.05;;
8365;SDS011;4220;42.502;24.188;2022-08-25T14:43:27;18.50;;;4.07;;
8365;SDS011;4220;42.502;24.188;2022-08-25T14:45:54;13.70;;;4.38;;
8365;SDS011;4220;42.502;24.188;2022-08-25T14:48:22;18.52;;;5.10;;
8365;SDS011;4220;42.502;24.188;2022-08-25T14:50:52;19.88;;;4.63;;
8365;SDS011;4220;42.502;24.188;2022-08-25T14:53:20;16.73;;;4.05;;
8365;SDS011;4220;42.502;24.188;2022-08-25T14:55:47;12.57;;;4.20;;
8365;SDS011;4220;42.502;24.188;2022-08-25T14:58:17;12.38;;;4.10;;
8365;SDS011;4220;42.502;24.188;2022-08-25T15:00:46;14.65;;;4.13;;
8365;SDS011;4220;42.502;24.188;2022-08-25T15:03:15;18.25;;;4.78;;
8365;SDS011;4220;42.502;24.188;2022-08-25T15:05:44;13.80;;;4.50;;
8365;SDS011;4220;42.502;24.188;2022-08-25T15:08:11;18.27;;;4.13;;
8365;SDS011;4220;42.502;24.188;2022-08-25T15:10:55;13.27;;;4.63;;
8365;SDS011;4220;42.502;24.188;2022-08-25T15:13:22;15.02;;;4.25;;
8365;SDS011;4220;42.502;24.188;2022-08-25T15:15:52;11.43;;;4.10;;
8365;SDS011;4220;42.502;24.188;2022-08-25T15:18:20;16.95;;;5.10;;
8365;SDS011;4220;42.502;24.188;2022-08-25T15:20:48;17.90;;;4.20;;
8365;SDS011;4220;42.502;24.188;2022-08-25T15:23:15;14.02;;;4.20;;
8365;SDS011;4220;42.502;24.188;2022-08-25T15:25:42;14.90;;;10.90;;